KBCE Airport (Bryce Canyon) Information

FAA: BCE - ICAO: KBCE

KBCE Airport Location

State Utah
County Garfield
City Bryce Canyon
KBCE Airport is 4 miles north of Bryce Canyon, UT.
Latitude 37-42-23.2070N
Longitude 112-08-44.8757W
Elevation 7,590ft

KBCE Airport METARs

METAR KBCE 072053Z AUTO 14014KT 3/4SM -SN BR FEW003 OVC007 M02/M03 A3004 RMK AO2 SLP159 P0001 60005 T10171028 56009
Altimeter 30.04"
Temperature -1.7°C (28.9°F)
Wind 140° at 14KT
Clouds few at 300ft overcast at 700ft
Visibility 0.75mi
Time observed: 2022-12-07T20:53:00Z

KBCE Airport Details

Status Operational
Activation November 1938
Ownership Public
Usage Public
Chart LAS VEGAS
ATC on-site No
Beacon schedule sunset-sunrise
Beacon color clear green

KBCE Airport Contacts

Owner GARFIELD COUNTY
Owner address 55 S MAIN ST., PO BOX 77, PANGUITCH, UT 84759
Owner phone 435-676-8826
Manager MIKE MARSHALL
Manager address 205 N. CHARLTON, WOODVILLE, TX 75979
Manager phone 409-283-7623

KBCE Airport (Bryce Canyon) Radio Frequencies

KBCE (Airport) Radio Frequencies

UNICOM 122.8
Common traffic advisory frequency (CTAF) 122.8